This is the latest recevied weather packets stored in our database for station/object EA3IK-7. If no packets are shown the sender has not sent any weather packets the latest 10 day(s).
| Time | Temp. | Humidity | Pressure | Rain* | Wind** | Luminosity | Snow |
|---|---|---|---|---|---|---|---|
| 1778233819 | 18.89° C | 78% | 1011.2 hPa | - | - | - | - |
| 1778232020 | 17.78° C | 84% | 1011 hPa | - | - | - | - |
| 1778232019 | 17.78° C | 84% | 1011 hPa | - | - | - | - |
| 1778230219 | 16.67° C | 86% | 1010.9 hPa | - | - | - | - |
| 1778228419 | 15.56° C | 85% | 1010.7 hPa | - | - | - | - |
| 1778226619 | 15° C | 89% | 1010.3 hPa | - | - | - | - |
| 1778226619 | 15° C | 89% | 1010.3 hPa | - | - | - | - |
| 1778224819 | 13.89° C | 92% | 1010.2 hPa | - | - | - | - |
| 1778223019 | 13.33° C | 92% | 1010 hPa | - | - | - | - |
| 1778221219 | 13.33° C | 93% | 1009.9 hPa | - | - | - | - |
| 1778219419 | 13.33° C | 93% | 1009.7 hPa | - | - | - | - |
| 1778217619 | 13.33° C | 92% | 1009.5 hPa | - | - | - | - |
| 1778215819 | 13.33° C | 92% | 1009.3 hPa | - | - | - | - |
| 1778214019 | 13.89° C | 92% | 1009.1 hPa | - | - | - | - |
| 1778212219 | 13.89° C | 91% | 1009.1 hPa | - | - | - | - |
| 1778210419 | 13.89° C | 91% | 1009 hPa | - | - | - | - |
| 1778208618 | 14.44° C | 91% | 1009.1 hPa | - | - | - | - |
| 1778206819 | 14.44° C | 90% | 1009.2 hPa | - | - | - | - |
| 1778205018 | 15° C | 90% | 1009.4 hPa | - | - | - | - |
| 1778203219 | 15° C | 89% | 1009.5 hPa | - | - | - | - |
| 1778203218 | 15° C | 89% | 1009.5 hPa | - | - | - | - |
| 1778201418 | 15° C | 88% | 1009.8 hPa | - | - | - | - |
| 1778199618 | 15.56° C | 88% | 1010 hPa | - | - | - | - |
| 1778197818 | 15.56° C | 88% | 1010.2 hPa | - | - | - | - |
| 1778196018 | 15.56° C | 86% | 1010.3 hPa | - | - | - | - |
* Rain since midnight (hover to see other rain measurements)
** Current wind speed in m/s (hover to see current wind gust speed)